Time;durP1;ratioP1;P1;durP2;ratioP2;P2;SDS_P1;SDS_P2;PMS_P1;PMS_P2;Temp;Humidity;BMP_temperature;BMP_pressure;BME280_temperature;BME280_humidity;BME280_pressure;Samples;Min_cycle;Max_cycle;Signal;HPM_P1;HPM_P2
2024/01/20 00:01:16;;;;;;;8.60;7.15;;;21.40;27.20;;;;;;4952009;28;20480;-59
2024/01/20 00:03:43;;;;;;;10.95;8.15;;;21.40;27.20;;;;;;4948522;28;20066;-59
2024/01/20 00:06:10;;;;;;;10.98;8.00;;;21.40;27.20;;;;;;4951416;28;20059;-59
2024/01/20 00:08:38;;;;;;;10.50;8.25;;;21.40;27.20;;;;;;4946853;28;20070;-59
2024/01/20 00:11:05;;;;;;;11.15;8.25;;;21.40;27.10;;;;;;4948443;28;20044;-60
2024/01/20 00:13:32;;;;;;;9.93;8.27;;;21.40;27.10;;;;;;4951535;28;20055;-59
2024/01/20 00:15:59;;;;;;;10.65;7.85;;;21.50;27.10;;;;;;4950865;28;20159;-59
2024/01/20 00:18:28;;;;;;;10.90;8.35;;;21.40;27.00;;;;;;4944605;28;20526;-59
2024/01/20 00:20:56;;;;;;;10.52;8.38;;;21.40;27.00;;;;;;4953030;28;20086;-60
2024/01/20 00:23:23;;;;;;;10.77;7.93;;;21.40;27.10;;;;;;4952195;28;20499;-59
2024/01/20 00:25:51;;;;;;;10.48;7.63;;;21.40;27.10;;;;;;4953983;28;20502;-59
2024/01/20 00:28:18;;;;;;;10.80;8.77;;;21.50;27.10;;;;;;4949166;28;20063;-59
2024/01/20 00:30:46;;;;;;;10.70;8.20;;;21.50;27.10;;;;;;4948282;28;20053;-60
2024/01/20 00:33:13;;;;;;;9.93;8.20;;;21.60;27.10;;;;;;4946966;28;20051;-60
2024/01/20 00:35:44;;;;;;;10.68;8.43;;;21.60;27.10;;;;;;4947530;28;20062;-60
2024/01/20 00:38:11;;;;;;;9.45;7.95;;;21.70;27.10;;;;;;4952248;28;20440;-60
2024/01/20 00:40:38;;;;;;;11.90;8.95;;;21.70;27.10;;;;;;4954564;28;20105;-60
2024/01/20 00:43:06;;;;;;;10.98;8.50;;;21.80;27.10;;;;;;4949013;28;20418;-60
2024/01/20 00:45:33;;;;;;;10.77;8.60;;;21.80;27.00;;;;;;4953029;28;20054;-60
2024/01/20 00:48:00;;;;;;;10.23;8.63;;;21.80;27.00;;;;;;4948167;28;20055;-60
2024/01/20 00:50:27;;;;;;;11.63;9.45;;;21.80;27.30;;;;;;4947605;28;20063;-57
2024/01/20 00:52:56;;;;;;;11.60;9.35;;;21.80;26.80;;;;;;4950251;28;20058;-59
2024/01/20 00:55:23;;;;;;;12.73;9.75;;;21.90;26.80;;;;;;4953397;28;20055;-60
2024/01/20 00:57:50;;;;;;;13.52;10.15;;;21.90;26.80;;;;;;4947507;28;20484;-59
2024/01/20 01:00:18;;;;;;;13.05;9.73;;;21.80;26.70;;;;;;4948299;28;20071;-59
2024/01/20 01:02:45;;;;;;;12.52;9.30;;;21.90;26.70;;;;;;4949784;28;20051;-59
2024/01/20 01:05:12;;;;;;;12.77;9.63;;;21.80;26.60;;;;;;4949956;28;20062;-59
2024/01/20 01:07:40;;;;;;;13.43;9.45;;;21.80;26.60;;;;;;4948525;28;20054;-59
2024/01/20 01:10:09;;;;;;;13.35;9.90;;;21.80;26.50;;;;;;4952542;28;20054;-59
2024/01/20 01:12:36;;;;;;;12.80;9.35;;;21.70;26.50;;;;;;4945199;28;20055;-59
2024/01/20 01:15:04;;;;;;;13.18;9.95;;;21.70;26.50;;;;;;4949742;28;20055;-59
2024/01/20 01:17:32;;;;;;;12.68;9.55;;;21.70;26.60;;;;;;4950717;28;20054;-59
2024/01/20 01:20:00;;;;;;;12.38;9.95;;;21.60;26.40;;;;;;4946279;28;20067;-58
2024/01/20 01:22:27;;;;;;;12.35;9.82;;;21.60;26.40;;;;;;4957797;28;20503;-59
2024/01/20 01:24:54;;;;;;;12.43;9.65;;;21.50;26.40;;;;;;4949608;28;20058;-59
2024/01/20 01:27:23;;;;;;;13.10;10.00;;;21.50;26.30;;;;;;4954265;28;20062;-58
2024/01/20 01:29:50;;;;;;;10.93;9.15;;;21.40;26.30;;;;;;4944055;28;20047;-59
2024/01/20 01:32:17;;;;;;;13.48;10.02;;;21.40;26.30;;;;;;4955720;28;20077;-58
2024/01/20 01:34:44;;;;;;;13.32;9.95;;;21.40;26.30;;;;;;4946435;28;20413;-58
2024/01/20 01:37:12;;;;;;;13.05;10.23;;;21.30;26.30;;;;;;4949254;28;20063;-59
2024/01/20 01:39:41;;;;;;;13.23;10.07;;;21.30;26.80;;;;;;4948636;28;20066;-59
2024/01/20 01:42:08;;;;;;;12.13;9.23;;;21.30;26.50;;;;;;4944512;28;20055;-58
2024/01/20 01:44:37;;;;;;;13.70;9.55;;;21.20;26.50;;;;;;4947579;28;20052;-59
2024/01/20 01:47:04;;;;;;;11.90;9.38;;;21.30;26.60;;;;;;4950188;28;20415;-59
2024/01/20 01:49:32;;;;;;;12.30;9.68;;;21.30;26.70;;;;;;4946606;28;20476;-59
2024/01/20 01:51:59;;;;;;;10.90;8.85;;;21.30;26.80;;;;;;4946761;28;20050;-57
2024/01/20 01:54:27;;;;;;;12.57;9.80;;;21.30;26.80;;;;;;4950240;28;20058;-59
2024/01/20 01:56:59;;;;;;;11.98;9.57;;;21.30;26.80;;;;;;4949577;28;20070;-59
2024/01/20 01:59:28;;;;;;;13.05;9.73;;;21.30;26.70;;;;;;4948528;28;20058;-59
2024/01/20 02:01:57;;;;;;;12.82;9.75;;;21.40;26.70;;;;;;4955239;28;20058;-58
2024/01/20 02:04:25;;;;;;;11.73;9.25;;;21.40;26.70;;;;;;4945728;28;20051;-59
2024/01/20 02:06:53;;;;;;;13.82;9.40;;;21.40;26.70;;;;;;4945759;28;20145;-59
2024/01/20 02:09:21;;;;;;;11.90;9.02;;;21.40;26.70;;;;;;4947614;28;20078;-59
2024/01/20 02:11:49;;;;;;;10.90;8.93;;;21.40;26.70;;;;;;4948214;28;20063;-60
2024/01/20 02:14:16;;;;;;;11.73;9.32;;;21.50;26.70;;;;;;4950386;28;20054;-60
2024/01/20 02:16:44;;;;;;;10.73;8.98;;;21.50;26.70;;;;;;4944189;28;20066;-59
2024/01/20 02:19:12;;;;;;;11.85;9.13;;;21.60;26.70;;;;;;4946624;28;20404;-59
2024/01/20 02:21:41;;;;;;;12.30;9.73;;;21.60;26.70;;;;;;4950428;28;20043;-59
2024/01/20 02:24:11;;;;;;;12.02;9.35;;;21.60;26.60;;;;;;4948241;28;20078;-59
2024/01/20 02:26:39;;;;;;;10.95;8.80;;;21.70;26.60;;;;;;4953715;28;20057;-59
2024/01/20 02:29:06;;;;;;;13.85;10.70;;;21.70;26.60;;;;;;4947641;28;20549;-59
2024/01/20 02:31:33;;;;;;;12.25;9.52;;;21.70;26.50;;;;;;4948166;28;20047;-60
2024/01/20 02:34:01;;;;;;;13.27;9.32;;;21.70;26.40;;;;;;4947922;28;20062;-59
2024/01/20 02:36:28;;;;;;;13.85;9.77;;;21.70;26.40;;;;;;4949359;28;20055;-59
2024/01/20 02:38:56;;;;;;;11.60;9.35;;;21.70;26.30;;;;;;4958027;28;20057;-59
2024/01/20 02:41:25;;;;;;;12.00;9.50;;;21.60;26.30;;;;;;4948939;28;20515;-59
2024/01/20 02:43:52;;;;;;;12.23;9.05;;;21.60;26.20;;;;;;4949737;28;20051;-59
2024/01/20 02:46:19;;;;;;;12.68;9.60;;;21.60;26.60;;;;;;4948818;28;20071;-60
2024/01/20 02:48:46;;;;;;;11.57;9.07;;;21.60;26.10;;;;;;4944918;28;20055;-59
2024/01/20 02:51:13;;;;;;;13.00;9.88;;;21.60;26.10;;;;;;4950076;28;20066;-60
2024/01/20 02:53:41;;;;;;;12.60;9.43;;;21.50;26.10;;;;;;4951847;28;20055;-59
2024/01/20 02:56:08;;;;;;;13.00;9.02;;;21.50;26.10;;;;;;4948077;28;20055;-58
2024/01/20 02:58:36;;;;;;;11.65;9.02;;;21.50;26.10;;;;;;4945705;28;20109;-59
2024/01/20 03:01:06;;;;;;;12.55;9.45;;;21.40;26.00;;;;;;4955092;28;20057;-59
2024/01/20 03:03:34;;;;;;;10.95;8.90;;;21.40;25.90;;;;;;4948014;28;20055;-59
2024/01/20 03:06:02;;;;;;;11.75;9.05;;;21.40;25.90;;;;;;4954090;28;20061;-59
2024/01/20 03:08:29;;;;;;;11.20;9.32;;;21.30;25.90;;;;;;4953916;28;20066;-59
2024/01/20 03:10:56;;;;;;;11.20;9.00;;;21.20;25.90;;;;;;4954834;28;20062;-59
2024/01/20 03:13:23;;;;;;;11.00;8.80;;;21.20;25.90;;;;;;4953113;28;20051;-59
2024/01/20 03:15:52;;;;;;;12.48;9.63;;;21.20;26.00;;;;;;4945434;28;20051;-59
2024/01/20 03:18:19;;;;;;;11.30;9.10;;;21.10;26.00;;;;;;4947224;28;20058;-58
2024/01/20 03:20:46;;;;;;;11.88;8.80;;;21.10;26.10;;;;;;4959092;28;20508;-59
2024/01/20 03:23:13;;;;;;;9.43;7.95;;;21.10;26.20;;;;;;4954962;28;20051;-59
2024/01/20 03:25:41;;;;;;;11.50;9.00;;;21.10;26.20;;;;;;4948075;28;20058;-59
2024/01/20 03:28:08;;;;;;;9.93;8.55;;;21.20;26.30;;;;;;4954322;28;20412;-59
2024/01/20 03:30:35;;;;;;;12.02;8.73;;;21.20;26.30;;;;;;4950632;28;20055;-58
2024/01/20 03:33:04;;;;;;;10.30;8.23;;;21.20;26.20;;;;;;4952977;28;20046;-58
2024/01/20 03:35:31;;;;;;;10.07;8.10;;;21.20;26.20;;;;;;4952811;28;20058;-60
2024/01/20 03:37:58;;;;;;;10.55;8.50;;;21.20;26.20;;;;;;4956569;28;20066;-60
2024/01/20 03:40:25;;;;;;;11.30;8.40;;;21.30;26.20;;;;;;4953160;28;20051;-60
2024/01/20 03:42:53;;;;;;;11.15;8.43;;;21.20;26.10;;;;;;4958279;28;20051;-60
2024/01/20 03:45:20;;;;;;;10.02;7.88;;;21.30;26.10;;;;;;4955213;28;20509;-61
2024/01/20 03:47:47;;;;;;;11.88;8.73;;;21.20;26.00;;;;;;4953023;28;20058;-60
2024/01/20 03:50:15;;;;;;;10.80;7.95;;;21.20;25.90;;;;;;4949223;28;20050;-60
2024/01/20 03:52:43;;;;;;;10.88;8.32;;;21.20;25.90;;;;;;4951901;28;20673;-59
2024/01/20 03:55:10;;;;;;;10.52;7.50;;;21.20;26.00;;;;;;4950708;28;20051;-59
2024/01/20 03:57:37;;;;;;;9.30;7.65;;;21.20;26.00;;;;;;4951896;28;20415;-59
2024/01/20 04:00:05;;;;;;;8.73;7.45;;;21.20;26.10;;;;;;4953387;28;20063;-59
2024/01/20 04:02:32;;;;;;;11.68;8.30;;;21.20;26.10;;;;;;4949181;28;20491;-59
2024/01/20 04:05:00;;;;;;;10.02;7.60;;;21.20;26.10;;;;;;4949301;28;20055;-60
2024/01/20 04:07:28;;;;;;;9.88;7.93;;;21.30;26.10;;;;;;4946962;28;20055;-59
2024/01/20 04:09:55;;;;;;;10.65;8.27;;;21.30;26.10;;;;;;4950925;28;20055;-60
2024/01/20 04:12:23;;;;;;;15.18;8.10;;;21.30;26.00;;;;;;4951380;28;20055;-60
2024/01/20 04:14:51;;;;;;;12.02;6.97;;;21.30;25.90;;;;;;4951861;28;20059;-59
2024/01/20 04:17:18;;;;;;;14.23;7.70;;;21.30;26.00;;;;;;4953189;28;20057;-62
2024/01/20 04:19:45;;;;;;;22.88;8.10;;;21.30;26.10;;;;;;4961071;28;20065;-62
2024/01/20 04:22:12;;;;;;;14.63;7.55;;;21.30;26.10;;;;;;4958010;28;20055;-59
2024/01/20 04:24:41;;;;;;;14.73;7.82;;;21.30;26.10;;;;;;4950758;28;20069;-64
2024/01/20 04:27:08;;;;;;;18.52;8.02;;;21.30;26.10;;;;;;4946416;28;20051;-61
2024/01/20 04:29:35;;;;;;;11.95;7.45;;;21.30;26.10;;;;;;4951369;28;20059;-61
2024/01/20 04:32:02;;;;;;;16.70;7.30;;;21.30;26.10;;;;;;4952938;28;20062;-60
2024/01/20 04:34:29;;;;;;;12.18;7.10;;;21.20;26.10;;;;;;4951863;28;20538;-60
2024/01/20 04:36:56;;;;;;;10.95;7.35;;;21.20;26.10;;;;;;4953315;28;20059;-59
2024/01/20 04:39:24;;;;;;;9.45;6.72;;;21.20;26.20;;;;;;4953359;28;20061;-61
2024/01/20 04:41:53;;;;;;;8.68;6.82;;;21.20;26.20;;;;;;4951067;28;20055;-60
2024/01/20 04:44:21;;;;;;;11.75;7.22;;;21.20;26.30;;;;;;4953892;28;20070;-59
2024/01/20 04:46:48;;;;;;;32.95;21.50;;;21.20;26.20;;;;;;4941534;28;20055;-59
2024/01/20 04:49:15;;;;;;;52.50;32.42;;;21.30;26.50;;;;;;4921039;29;20048;-59
2024/01/20 04:51:42;;;;;;;46.95;30.80;;;21.30;25.80;;;;;;4925827;29;20044;-61
2024/01/20 04:54:09;;;;;;;30.45;21.08;;;21.30;25.90;;;;;;4928869;29;20051;-58
2024/01/20 04:56:36;;;;;;;25.20;16.85;;;21.30;25.90;;;;;;4921696;29;20059;-63
2024/01/20 04:59:05;;;;;;;25.05;14.55;;;21.30;26.00;;;;;;4920936;29;20062;-59
2024/01/20 05:01:32;;;;;;;19.33;13.93;;;21.30;26.20;;;;;;4923530;29;20499;-58
2024/01/20 05:03:59;;;;;;;15.40;11.85;;;21.40;26.10;;;;;;4914775;29;20055;-59
2024/01/20 05:06:26;;;;;;;24.48;17.13;;;21.40;26.10;;;;;;4920395;29;20052;-59
2024/01/20 05:08:54;;;;;;;57.25;36.03;;;21.40;26.00;;;;;;4927104;29;20055;-59
2024/01/20 05:11:21;;;;;;;43.42;28.08;;;21.40;25.70;;;;;;4928767;29;20051;-59
2024/01/20 05:13:48;;;;;;;27.58;19.45;;;21.40;25.60;;;;;;4921006;29;20048;-58
2024/01/20 05:16:18;;;;;;;25.88;16.88;;;21.40;25.80;;;;;;4918619;29;20066;-60
2024/01/20 05:18:45;;;;;;;21.13;14.32;;;21.40;25.80;;;;;;4916949;29;20492;-60
2024/01/20 05:21:14;;;;;;;19.25;14.38;;;21.40;25.80;;;;;;4924213;29;20052;-60
2024/01/20 05:23:41;;;;;;;16.80;12.48;;;21.40;25.80;;;;;;4915878;29;20056;-58
2024/01/20 05:26:08;;;;;;;16.67;12.48;;;21.40;25.80;;;;;;4923471;29;20051;-58
2024/01/20 05:28:36;;;;;;;28.77;12.05;;;21.40;25.80;;;;;;4924097;29;20052;-58
2024/01/20 05:31:03;;;;;;;15.65;11.15;;;21.40;25.90;;;;;;4913809;29;20410;-59
2024/01/20 05:33:32;;;;;;;55.72;35.78;;;21.40;25.90;;;;;;4923144;29;20504;-57
2024/01/20 05:35:59;;;;;;;70.13;43.10;;;21.40;25.60;;;;;;4928235;29;20051;-57
2024/01/20 05:38:26;;;;;;;45.17;30.38;;;21.40;25.30;;;;;;4922910;29;20055;-58
2024/01/20 05:40:54;;;;;;;39.72;23.75;;;21.40;25.30;;;;;;4921248;29;20055;-57
2024/01/20 05:43:21;;;;;;;29.58;19.27;;;21.40;25.40;;;;;;4920877;29;20081;-60
2024/01/20 05:45:48;;;;;;;27.92;17.73;;;21.40;25.60;;;;;;4921874;29;20055;-57
2024/01/20 05:48:15;;;;;;;24.08;16.23;;;21.40;25.60;;;;;;4925960;29;20051;-58
2024/01/20 05:50:44;;;;;;;19.60;14.25;;;21.40;25.70;;;;;;4922474;29;20048;-58
2024/01/20 05:53:12;;;;;;;20.02;13.20;;;21.40;25.70;;;;;;4920285;29;20056;-55
2024/01/20 05:55:39;;;;;;;17.98;12.23;;;21.40;25.70;;;;;;4920650;29;20052;-57
2024/01/20 05:58:06;;;;;;;16.17;11.73;;;21.50;25.80;;;;;;4919256;29;20523;-58
2024/01/20 06:00:33;;;;;;;17.08;11.32;;;21.50;25.80;;;;;;4918378;29;20056;-59
2024/01/20 06:03:00;;;;;;;14.18;10.98;;;21.50;25.80;;;;;;4916465;29;20078;-59
2024/01/20 06:05:28;;;;;;;17.20;11.63;;;21.50;25.70;;;;;;4918623;29;20056;-59
2024/01/20 06:07:56;;;;;;;21.67;11.27;;;21.50;25.60;;;;;;4920686;29;20064;-58
2024/01/20 06:10:23;;;;;;;15.23;10.10;;;21.40;25.70;;;;;;4924075;29;20540;-58
2024/01/20 06:12:51;;;;;;;14.45;8.93;;;21.40;25.70;;;;;;4915987;29;20059;-58
2024/01/20 06:15:18;;;;;;;18.10;9.73;;;21.40;25.70;;;;;;4923610;29;20059;-58
2024/01/20 06:17:45;;;;;;;24.58;9.27;;;21.40;25.70;;;;;;4926805;29;20051;-58
2024/01/20 06:20:14;;;;;;;10.30;7.90;;;21.40;25.70;;;;;;4918752;29;20048;-58
2024/01/20 06:22:41;;;;;;;16.75;8.95;;;21.30;25.70;;;;;;4922060;29;20397;-52
2024/01/20 06:25:10;;;;;;;19.35;9.07;;;21.30;25.80;;;;;;4923252;29;20051;-56
2024/01/20 06:27:38;;;;;;;14.05;8.10;;;21.30;25.80;;;;;;4922055;29;20066;-51
2024/01/20 06:30:06;;;;;;;11.68;8.00;;;21.30;25.80;;;;;;4925799;29;20047;-59
2024/01/20 06:32:33;;;;;;;11.75;8.57;;;21.20;25.80;;;;;;4918317;29;20059;-59
2024/01/20 06:35:01;;;;;;;10.98;8.38;;;21.20;25.80;;;;;;4923417;29;20099;-58
2024/01/20 06:37:28;;;;;;;11.32;8.60;;;21.20;25.80;;;;;;4916196;29;20056;-58
2024/01/20 06:39:55;;;;;;;16.05;8.10;;;21.20;25.80;;;;;;4919859;29;20421;-59
2024/01/20 06:42:24;;;;;;;12.02;7.95;;;21.20;25.80;;;;;;4913949;29;20070;-58
2024/01/20 06:44:51;;;;;;;10.68;7.25;;;21.20;25.90;;;;;;4916373;29;20059;-57
2024/01/20 06:47:19;;;;;;;123.10;70.88;;;21.20;25.90;;;;;;4919399;29;20864;-57
2024/01/20 06:49:49;;;;;;;90.88;55.58;;;21.20;25.70;;;;;;4921119;29;20062;-57
2024/01/20 06:52:16;;;;;;;54.78;32.92;;;21.20;25.60;;;;;;4917348;29;20052;-58
2024/01/20 06:54:43;;;;;;;39.67;22.90;;;21.30;25.70;;;;;;4917777;29;20052;-58
2024/01/20 06:57:11;;;;;;;32.88;20.75;;;21.30;25.80;;;;;;4921368;29;20524;-59
2024/01/20 06:59:40;;;;;;;26.30;17.63;;;21.30;25.80;;;;;;4913390;29;20063;-59
2024/01/20 07:02:07;;;;;;;29.52;18.65;;;21.30;25.80;;;;;;4912752;29;21185;-59
2024/01/20 07:04:34;;;;;;;24.77;16.67;;;21.30;25.80;;;;;;4923715;29;20047;-62
2024/01/20 07:07:02;;;;;;;24.35;15.98;;;21.30;25.80;;;;;;4921173;29;20056;-59
2024/01/20 07:09:29;;;;;;;21.48;14.65;;;21.30;25.80;;;;;;4924583;29;20059;-60
2024/01/20 07:11:57;;;;;;;20.40;13.88;;;21.30;25.90;;;;;;4919106;29;20052;-61
2024/01/20 07:14:25;;;;;;;18.50;13.27;;;21.40;25.90;;;;;;4923680;29;20051;-60
2024/01/20 07:16:53;;;;;;;16.95;11.80;;;21.40;25.90;;;;;;4917848;29;20048;-58
2024/01/20 07:19:20;;;;;;;19.48;11.60;;;21.40;25.80;;;;;;4917924;29;20067;-58
2024/01/20 07:21:48;;;;;;;15.30;11.15;;;21.50;25.90;;;;;;4924406;29;20055;-59
2024/01/20 07:24:15;;;;;;;19.05;11.23;;;21.50;25.90;;;;;;4922065;29;20400;-61
2024/01/20 07:26:43;;;;;;;20.60;10.43;;;21.50;25.90;;;;;;4921411;29;20416;-61
2024/01/20 07:29:10;;;;;;;13.70;10.07;;;21.50;25.90;;;;;;4923737;29;20056;-61
2024/01/20 07:31:37;;;;;;;15.63;9.85;;;21.50;26.00;;;;;;4922684;29;20055;-58
2024/01/20 07:34:06;;;;;;;14.20;9.50;;;21.50;26.00;;;;;;4918586;29;20055;-60
2024/01/20 07:36:33;;;;;;;16.48;8.90;;;21.50;26.00;;;;;;4918792;29;20064;-61
2024/01/20 07:39:00;;;;;;;12.73;9.38;;;21.40;26.00;;;;;;4915207;29;20066;-60
2024/01/20 07:41:28;;;;;;;13.52;8.23;;;21.40;25.80;;;;;;4919066;29;20067;-59
2024/01/20 07:43:55;;;;;;;13.05;8.98;;;21.40;25.80;;;;;;4925609;29;20056;-61
2024/01/20 07:46:22;;;;;;;13.57;8.57;;;21.40;25.80;;;;;;4922452;29;20052;-59
2024/01/20 07:48:49;;;;;;;11.35;8.18;;;21.40;25.80;;;;;;4926919;29;20051;-60
2024/01/20 07:51:18;;;;;;;12.10;8.73;;;21.30;25.70;;;;;;4929041;29;20051;-59
2024/01/20 07:53:47;;;;;;;11.90;8.38;;;21.30;25.70;;;;;;4926118;29;20051;-58
2024/01/20 07:56:16;;;;;;;15.50;7.65;;;21.30;25.70;;;;;;4924052;29;20052;-58
2024/01/20 07:58:43;;;;;;;14.25;8.60;;;21.20;25.80;;;;;;4923635;29;20425;-58
2024/01/20 08:01:10;;;;;;;9.52;7.57;;;21.20;25.80;;;;;;4917695;29;20618;-59
2024/01/20 08:03:37;;;;;;;10.55;7.38;;;21.10;25.70;;;;;;4928191;29;20060;-57
2024/01/20 08:06:05;;;;;;;16.63;7.63;;;21.10;25.80;;;;;;4917152;29;20272;-59
2024/01/20 08:08:34;;;;;;;13.98;7.47;;;21.10;25.90;;;;;;4927216;29;20056;-58
2024/01/20 08:11:02;;;;;;;12.75;7.75;;;21.00;25.80;;;;;;4922420;29;20058;-58
2024/01/20 08:13:29;;;;;;;11.05;7.60;;;21.00;25.90;;;;;;4922496;29;20068;-58
2024/01/20 08:15:56;;;;;;;14.05;7.18;;;21.00;26.30;;;;;;4925065;29;20055;-58
2024/01/20 08:18:23;;;;;;;9.95;7.30;;;21.00;25.90;;;;;;4922464;29;20513;-60
2024/01/20 08:20:50;;;;;;;9.23;7.20;;;21.10;26.00;;;;;;4922910;29;20066;-57
2024/01/20 08:23:18;;;;;;;10.20;6.78;;;21.10;26.00;;;;;;4920893;29;20047;-59
2024/01/20 08:25:46;;;;;;;11.43;7.13;;;21.10;26.10;;;;;;4920810;29;20048;-60
2024/01/20 08:28:13;;;;;;;183.27;100.25;;;21.10;26.00;;;;;;4923582;29;20056;-61
2024/01/20 08:30:41;;;;;;;160.13;94.28;;;21.20;25.70;;;;;;4920892;29;20056;-58
2024/01/20 08:33:08;;;;;;;101.75;59.65;;;21.20;25.60;;;;;;4924767;29;20051;-59
2024/01/20 08:35:35;;;;;;;71.00;43.10;;;21.20;25.70;;;;;;4925711;29;20062;-58
2024/01/20 08:38:02;;;;;;;52.65;32.88;;;21.20;25.70;;;;;;4922611;29;20060;-58
2024/01/20 08:40:30;;;;;;;43.05;28.20;;;21.20;25.70;;;;;;4924112;29;20429;-58
2024/01/20 08:42:58;;;;;;;42.30;26.25;;;21.20;25.70;;;;;;4921150;29;20067;-58
2024/01/20 08:45:25;;;;;;;39.92;25.50;;;21.20;25.70;;;;;;4929334;29;20404;-58
2024/01/20 08:47:53;;;;;;;36.35;22.98;;;21.10;25.70;;;;;;4923878;29;20064;-61
2024/01/20 08:50:20;;;;;;;35.35;22.63;;;21.10;25.70;;;;;;4923877;29;20129;-59
2024/01/20 08:52:47;;;;;;;29.77;19.42;;;21.10;25.70;;;;;;4917294;29;20059;-59
2024/01/20 08:55:14;;;;;;;27.42;17.88;;;21.10;25.70;;;;;;4919109;29;20056;-59
2024/01/20 08:57:42;;;;;;;26.42;16.52;;;21.10;25.70;;;;;;4922061;29;20413;-60
2024/01/20 09:00:12;;;;;;;28.15;16.10;;;21.00;25.70;;;;;;4923295;29;20067;-59
2024/01/20 09:02:40;;;;;;;32.40;15.40;;;21.00;25.90;;;;;;4915918;29;20059;-60
2024/01/20 09:05:07;;;;;;;30.45;14.93;;;21.00;26.00;;;;;;4924669;29;20512;-59
2024/01/20 09:07:35;;;;;;;36.72;14.32;;;21.00;26.20;;;;;;4922710;29;20056;-62
2024/01/20 09:10:03;;;;;;;23.13;12.38;;;20.90;26.30;;;;;;4922412;29;20141;-62
2024/01/20 09:12:30;;;;;;;19.52;12.05;;;20.90;26.40;;;;;;4916404;29;20059;-59
2024/01/20 09:14:58;;;;;;;17.55;11.23;;;20.90;26.30;;;;;;4926492;29;20445;-60
2024/01/20 09:17:26;;;;;;;19.48;12.48;;;20.90;26.30;;;;;;4924973;29;20052;-59
2024/01/20 09:19:53;;;;;;;23.52;12.50;;;20.80;26.70;;;;;;4917965;29;20335;-59
2024/01/20 09:22:21;;;;;;;30.20;12.68;;;20.80;26.30;;;;;;4921261;29;20059;-59
2024/01/20 09:24:48;;;;;;;21.40;11.32;;;20.80;26.40;;;;;;4923287;29;20048;-58
2024/01/20 09:27:16;;;;;;;18.48;10.57;;;20.80;26.50;;;;;;4925787;29;20071;-59
2024/01/20 09:29:44;;;;;;;18.23;10.57;;;20.70;26.50;;;;;;4919586;29;20064;-59
2024/01/20 09:32:11;;;;;;;18.73;10.90;;;20.70;26.70;;;;;;4927019;29;20056;-59
2024/01/20 09:34:39;;;;;;;14.68;9.55;;;20.70;26.90;;;;;;4919700;29;20055;-60
2024/01/20 09:37:07;;;;;;;14.82;8.98;;;20.70;27.00;;;;;;4921331;29;20056;-58
2024/01/20 09:39:34;;;;;;;15.30;9.18;;;20.70;27.00;;;;;;4918292;29;20059;-60
2024/01/20 09:42:02;;;;;;;17.45;8.73;;;20.80;27.00;;;;;;4927553;29;20063;-60
2024/01/20 09:44:29;;;;;;;16.17;9.00;;;20.80;27.10;;;;;;4919970;29;20070;-60
2024/01/20 09:46:57;;;;;;;11.88;8.18;;;20.90;27.10;;;;;;4927409;29;20499;-59
2024/01/20 09:49:25;;;;;;;16.52;8.52;;;20.90;27.20;;;;;;4924075;29;20380;-59
2024/01/20 09:51:58;;;;;;;14.23;8.88;;;21.00;27.10;;;;;;4926680;29;20060;-63
2024/01/20 09:54:26;;;;;;;13.35;8.68;;;21.00;26.70;;;;;;4912281;29;20063;-58
2024/01/20 09:56:53;;;;;;;13.32;7.60;;;21.10;26.60;;;;;;4921935;29;20052;-60
2024/01/20 09:59:23;;;;;;;14.05;8.50;;;21.10;26.80;;;;;;4929258;29;20082;-58
2024/01/20 10:01:52;;;;;;;14.43;7.95;;;21.10;26.50;;;;;;4933315;29;20067;-59
2024/01/20 10:04:24;;;;;;;33.55;8.68;;;21.20;26.40;;;;;;4925355;29;20059;-59
2024/01/20 10:06:54;;;;;;;17.60;7.63;;;21.20;26.50;;;;;;4923283;29;20055;-57
2024/01/20 10:09:22;;;;;;;12.77;8.23;;;21.30;26.50;;;;;;4926426;29;20063;-59
2024/01/20 10:11:49;;;;;;;21.38;7.72;;;21.30;26.30;;;;;;4922771;29;20051;-57
2024/01/20 10:14:17;;;;;;;14.02;7.72;;;21.30;26.10;;;;;;4915623;29;20048;-60
2024/01/20 10:16:44;;;;;;;14.25;7.60;;;21.40;26.00;;;;;;4921921;29;20052;-62
2024/01/20 10:19:11;;;;;;;48.25;8.73;;;21.40;25.80;;;;;;4930176;29;20047;-59
2024/01/20 10:21:42;;;;;;;20.92;8.63;;;21.40;25.90;;;;;;4927470;29;20393;-59
2024/01/20 10:24:11;;;;;;;16.65;8.20;;;21.40;25.70;;;;;;4928029;29;20052;-59
2024/01/20 10:26:42;;;;;;;18.80;9.18;;;21.40;25.70;;;;;;4923637;29;20055;-59
2024/01/20 10:29:09;;;;;;;18.42;8.57;;;21.40;25.50;;;;;;4920265;29;20510;-55
2024/01/20 10:31:37;;;;;;;17.50;9.02;;;21.40;25.70;;;;;;4928780;29;20063;-60
2024/01/20 10:34:04;;;;;;;15.70;8.85;;;21.40;25.60;;;;;;4926975;29;20059;-57
2024/01/20 10:36:33;;;;;;;13.18;7.97;;;21.40;25.40;;;;;;4920881;29;20530;-59
2024/01/20 10:39:04;;;;;;;11.90;7.80;;;21.30;25.40;;;;;;4929218;29;20055;-60
2024/01/20 10:41:35;;;;;;;19.27;10.30;;;21.30;25.30;;;;;;4929724;29;20051;-60
2024/01/20 10:44:05;;;;;;;15.77;8.50;;;21.20;24.90;;;;;;4919353;29;20056;-60
2024/01/20 10:46:40;;;;;;;13.18;8.05;;;21.20;25.00;;;;;;4918085;29;20051;-61
2024/01/20 10:49:11;;;;;;;10.63;7.40;;;21.10;25.20;;;;;;4932168;29;20051;-55
2024/01/20 10:51:39;;;;;;;10.43;7.72;;;21.10;25.40;;;;;;4925605;29;20063;-56
2024/01/20 10:54:07;;;;;;;9.82;7.07;;;21.00;25.40;;;;;;4923030;29;20070;-59
2024/01/20 10:56:36;;;;;;;10.25;7.65;;;21.00;25.60;;;;;;4923170;29;20512;-64
2024/01/20 10:59:10;;;;;;;9.32;6.47;;;21.00;25.70;;;;;;4927822;29;20524;-63
2024/01/20 11:01:38;;;;;;;9.00;6.43;;;21.00;25.80;;;;;;4926321;29;20082;-61
2024/01/20 11:04:05;;;;;;;8.68;6.40;;;21.00;25.80;;;;;;4926666;29;20056;-61
2024/01/20 11:06:32;;;;;;;7.75;5.95;;;21.00;25.90;;;;;;4927719;29;20058;-59
2024/01/20 11:09:01;;;;;;;9.77;6.47;;;21.10;26.10;;;;;;4922816;29;20449;-58
2024/01/20 11:11:29;;;;;;;19.42;10.77;;;21.10;26.10;;;;;;4928946;29;20051;-55
2024/01/20 11:14:00;;;;;;;14.82;11.13;;;21.10;25.30;;;;;;4919412;29;20052;-58
2024/01/20 11:16:30;;;;;;;15.52;10.50;;;21.00;24.20;;;;;;4924721;29;20060;-60
2024/01/20 11:19:08;;;;;;;18.52;8.73;;;20.90;24.10;;;;;;4924047;29;20102;-61
2024/01/20 11:21:35;;;;;;;13.27;8.77;;;20.80;24.70;;;;;;4928960;29;20575;-57
2024/01/20 11:24:04;;;;;;;11.25;8.02;;;20.70;25.00;;;;;;4935796;29;20058;-57
2024/01/20 11:26:33;;;;;;;12.45;7.72;;;20.60;25.20;;;;;;4925494;29;20059;-58
2024/01/20 11:29:03;;;;;;;11.43;7.55;;;20.50;25.50;;;;;;4926922;29;20048;-56
2024/01/20 11:31:31;;;;;;;12.02;7.30;;;20.50;25.70;;;;;;4932225;29;20063;-56
2024/01/20 11:33:58;;;;;;;11.40;7.32;;;20.50;25.80;;;;;;4935181;29;20072;-57
2024/01/20 11:36:29;;;;;;;9.73;6.95;;;20.50;25.80;;;;;;4928550;29;20060;-59
2024/01/20 11:38:57;;;;;;;11.27;6.88;;;20.40;25.90;;;;;;4927737;29;20063;-58
2024/01/20 11:41:25;;;;;;;10.25;7.47;;;20.50;25.90;;;;;;4929355;29;20063;-57
2024/01/20 11:43:52;;;;;;;10.10;7.30;;;20.40;25.90;;;;;;4932153;29;20051;-58
2024/01/20 11:46:21;;;;;;;9.57;6.95;;;20.40;25.90;;;;;;4932254;29;20547;-57
2024/01/20 11:48:48;;;;;;;10.43;7.30;;;20.40;25.90;;;;;;4928928;29;20052;-57
2024/01/20 11:51:15;;;;;;;9.75;6.85;;;20.40;25.90;;;;;;4929398;29;20055;-57
2024/01/20 11:53:45;;;;;;;9.25;6.70;;;20.40;25.90;;;;;;4922641;29;20063;-56
2024/01/20 11:56:12;;;;;;;9.73;6.75;;;20.40;25.90;;;;;;4922852;29;20497;-58
2024/01/20 11:58:39;;;;;;;9.65;6.53;;;20.40;26.00;;;;;;4929215;29;20063;-60
2024/01/20 12:01:07;;;;;;;8.00;6.30;;;20.40;26.10;;;;;;4924234;29;20063;-53
2024/01/20 12:03:35;;;;;;;8.23;6.40;;;20.40;26.20;;;;;;4925004;29;20123;-57
2024/01/20 12:06:07;;;;;;;9.50;6.75;;;20.40;26.30;;;;;;4931612;29;20048;-56
2024/01/20 12:08:36;;;;;;;8.50;6.28;;;20.40;26.30;;;;;;4926810;29;20086;-56
2024/01/20 12:11:03;;;;;;;6.95;5.90;;;20.50;26.40;;;;;;4926942;29;20051;-56
2024/01/20 12:13:32;;;;;;;7.35;5.65;;;20.50;26.30;;;;;;4925321;29;20056;-56
2024/01/20 12:16:00;;;;;;;8.27;6.10;;;20.60;26.40;;;;;;4926734;29;20059;-56
2024/01/20 12:18:28;;;;;;;27.55;6.30;;;20.60;26.40;;;;;;4935234;29;20066;-54
2024/01/20 12:20:57;;;;;;;8.48;5.80;;;20.60;26.40;;;;;;4924810;29;20063;-56
2024/01/20 12:23:26;;;;;;;9.48;6.82;;;20.60;26.40;;;;;;4920012;29;20066;-54
2024/01/20 12:25:54;;;;;;;18.77;11.25;;;20.70;26.40;;;;;;4923375;29;20438;-58
2024/01/20 12:28:21;;;;;;;14.20;9.30;;;20.70;26.40;;;;;;4926940;29;20516;-57
2024/01/20 12:30:49;;;;;;;15.00;8.95;;;20.70;26.40;;;;;;4923441;29;20515;-56
2024/01/20 12:33:16;;;;;;;11.57;7.93;;;20.70;26.40;;;;;;4925153;29;20063;-57
2024/01/20 12:35:43;;;;;;;11.77;8.00;;;20.70;26.30;;;;;;4923905;29;20061;-57
2024/01/20 12:38:12;;;;;;;10.13;7.32;;;20.70;26.30;;;;;;4923183;29;20116;-58